sensor_id;sensor_type;location;lat;lon;timestamp;P1;durP1;ratioP1;P2;durP2;ratioP2
51438;SDS011;38816;51.142;-0.974;2023-07-31T00:01:17;34.15;;;31.77;;
51438;SDS011;38816;51.142;-0.974;2023-07-31T00:03:42;37.53;;;31.98;;
51438;SDS011;38816;51.142;-0.974;2023-07-31T00:06:08;38.15;;;35.30;;
51438;SDS011;38816;51.142;-0.974;2023-07-31T00:08:33;37.92;;;35.40;;
51438;SDS011;38816;51.142;-0.974;2023-07-31T00:10:59;37.25;;;34.67;;
51438;SDS011;38816;51.142;-0.974;2023-07-31T00:13:24;35.83;;;33.30;;
51438;SDS011;38816;51.142;-0.974;2023-07-31T00:15:50;35.47;;;32.92;;
51438;SDS011;38816;51.142;-0.974;2023-07-31T00:18:15;40.70;;;37.83;;
51438;SDS011;38816;51.142;-0.974;2023-07-31T00:20:40;35.45;;;32.58;;
51438;SDS011;38816;51.142;-0.974;2023-07-31T00:23:06;37.85;;;35.17;;
51438;SDS011;38816;51.142;-0.974;2023-07-31T00:25:31;40.50;;;37.60;;
51438;SDS011;38816;51.142;-0.974;2023-07-31T00:27:57;37.83;;;35.35;;
51438;SDS011;38816;51.142;-0.974;2023-07-31T00:30:22;40.50;;;37.72;;
51438;SDS011;38816;51.142;-0.974;2023-07-31T00:32:50;42.38;;;39.55;;
51438;SDS011;38816;51.142;-0.974;2023-07-31T00:35:15;42.22;;;39.15;;
51438;SDS011;38816;51.142;-0.974;2023-07-31T00:37:41;40.63;;;37.95;;
51438;SDS011;38816;51.142;-0.974;2023-07-31T00:40:07;43.47;;;40.63;;
51438;SDS011;38816;51.142;-0.974;2023-07-31T00:42:33;38.92;;;36.28;;
51438;SDS011;38816;51.142;-0.974;2023-07-31T00:44:58;37.40;;;34.83;;
51438;SDS011;38816;51.142;-0.974;2023-07-31T00:47:23;36.85;;;34.40;;
51438;SDS011;38816;51.142;-0.974;2023-07-31T00:49:49;41.15;;;38.40;;
51438;SDS011;38816;51.142;-0.974;2023-07-31T00:52:14;40.75;;;37.70;;
51438;SDS011;38816;51.142;-0.974;2023-07-31T00:54:40;40.75;;;38.03;;
51438;SDS011;38816;51.142;-0.974;2023-07-31T00:57:05;38.13;;;35.35;;
51438;SDS011;38816;51.142;-0.974;2023-07-31T00:59:33;43.58;;;40.45;;
51438;SDS011;38816;51.142;-0.974;2023-07-31T01:01:59;46.08;;;42.88;;
51438;SDS011;38816;51.142;-0.974;2023-07-31T01:04:24;41.45;;;38.25;;
51438;SDS011;38816;51.142;-0.974;2023-07-31T01:06:56;46.92;;;43.42;;
51438;SDS011;38816;51.142;-0.974;2023-07-31T01:12:00;37.55;;;34.97;;
51438;SDS011;38816;51.142;-0.974;2023-07-31T01:14:28;44.35;;;41.28;;
51438;SDS011;38816;51.142;-0.974;2023-07-31T01:16:54;38.17;;;35.58;;
51438;SDS011;38816;51.142;-0.974;2023-07-31T01:19:22;45.55;;;42.45;;
51438;SDS011;38816;51.142;-0.974;2023-07-31T01:30:08;30.48;;;28.23;;
51438;SDS011;38816;51.142;-0.974;2023-07-31T01:32:42;38.10;;;35.05;;
51438;SDS011;38816;51.142;-0.974;2023-07-31T01:35:09;37.42;;;34.63;;
51438;SDS011;38816;51.142;-0.974;2023-07-31T01:37:35;43.45;;;40.35;;
51438;SDS011;38816;51.142;-0.974;2023-07-31T01:40:00;42.15;;;39.00;;
51438;SDS011;38816;51.142;-0.974;2023-07-31T01:42:26;44.30;;;40.85;;
51438;SDS011;38816;51.142;-0.974;2023-07-31T01:44:51;47.13;;;43.55;;
51438;SDS011;38816;51.142;-0.974;2023-07-31T01:47:17;41.10;;;38.20;;
51438;SDS011;38816;51.142;-0.974;2023-07-31T01:49:42;47.28;;;44.08;;
51438;SDS011;38816;51.142;-0.974;2023-07-31T01:52:08;41.60;;;38.67;;
51438;SDS011;38816;51.142;-0.974;2023-07-31T01:54:33;44.83;;;41.53;;
51438;SDS011;38816;51.142;-0.974;2023-07-31T01:56:59;44.90;;;41.65;;
51438;SDS011;38816;51.142;-0.974;2023-07-31T01:59:24;50.15;;;46.75;;
51438;SDS011;38816;51.142;-0.974;2023-07-31T02:01:50;50.50;;;46.85;;
51438;SDS011;38816;51.142;-0.974;2023-07-31T02:04:15;47.95;;;44.03;;
51438;SDS011;38816;51.142;-0.974;2023-07-31T02:06:41;52.85;;;48.67;;
51438;SDS011;38816;51.142;-0.974;2023-07-31T02:09:06;50.42;;;46.80;;
51438;SDS011;38816;51.142;-0.974;2023-07-31T02:11:31;48.20;;;44.50;;
51438;SDS011;38816;51.142;-0.974;2023-07-31T02:13:57;48.00;;;44.75;;
51438;SDS011;38816;51.142;-0.974;2023-07-31T02:16:22;49.70;;;45.88;;
51438;SDS011;38816;51.142;-0.974;2023-07-31T02:18:48;44.03;;;40.83;;
51438;SDS011;38816;51.142;-0.974;2023-07-31T02:21:13;49.75;;;45.88;;
51438;SDS011;38816;51.142;-0.974;2023-07-31T02:23:39;54.38;;;50.30;;
51438;SDS011;38816;51.142;-0.974;2023-07-31T02:26:04;52.97;;;49.33;;
51438;SDS011;38816;51.142;-0.974;2023-07-31T02:28:29;52.63;;;48.65;;
51438;SDS011;38816;51.142;-0.974;2023-07-31T02:30:55;58.90;;;54.88;;
51438;SDS011;38816;51.142;-0.974;2023-07-31T02:33:21;57.10;;;53.30;;
51438;SDS011;38816;51.142;-0.974;2023-07-31T02:35:46;61.30;;;57.13;;
51438;SDS011;38816;51.142;-0.974;2023-07-31T02:38:12;57.30;;;53.55;;
51438;SDS011;38816;51.142;-0.974;2023-07-31T02:40:37;60.78;;;56.67;;
51438;SDS011;38816;51.142;-0.974;2023-07-31T02:43:04;54.83;;;51.13;;
51438;SDS011;38816;51.142;-0.974;2023-07-31T02:45:30;61.90;;;57.65;;
51438;SDS011;38816;51.142;-0.974;2023-07-31T02:47:55;67.38;;;62.90;;
51438;SDS011;38816;51.142;-0.974;2023-07-31T02:50:20;67.75;;;63.20;;
51438;SDS011;38816;51.142;-0.974;2023-07-31T02:52:46;66.10;;;61.58;;
51438;SDS011;38816;51.142;-0.974;2023-07-31T02:55:11;67.88;;;63.38;;
51438;SDS011;38816;51.142;-0.974;2023-07-31T02:57:37;69.65;;;64.75;;
51438;SDS011;38816;51.142;-0.974;2023-07-31T03:00:02;70.88;;;65.88;;
51438;SDS011;38816;51.142;-0.974;2023-07-31T03:02:31;63.58;;;59.03;;
51438;SDS011;38816;51.142;-0.974;2023-07-31T03:04:56;67.50;;;62.72;;
51438;SDS011;38816;51.142;-0.974;2023-07-31T03:07:22;80.43;;;75.03;;
51438;SDS011;38816;51.142;-0.974;2023-07-31T03:09:47;68.57;;;63.42;;
51438;SDS011;38816;51.142;-0.974;2023-07-31T03:12:13;75.40;;;70.32;;
51438;SDS011;38816;51.142;-0.974;2023-07-31T03:14:38;77.78;;;72.40;;
51438;SDS011;38816;51.142;-0.974;2023-07-31T03:17:04;72.25;;;67.10;;
51438;SDS011;38816;51.142;-0.974;2023-07-31T03:19:32;69.88;;;64.90;;
51438;SDS011;38816;51.142;-0.974;2023-07-31T03:21:58;70.13;;;64.95;;
51438;SDS011;38816;51.142;-0.974;2023-07-31T03:24:25;71.35;;;66.25;;
51438;SDS011;38816;51.142;-0.974;2023-07-31T03:26:50;82.57;;;76.60;;
51438;SDS011;38816;51.142;-0.974;2023-07-31T03:29:16;75.40;;;70.22;;
51438;SDS011;38816;51.142;-0.974;2023-07-31T03:31:41;82.30;;;76.72;;
51438;SDS011;38816;51.142;-0.974;2023-07-31T03:34:07;81.63;;;76.20;;
51438;SDS011;38816;51.142;-0.974;2023-07-31T03:36:32;71.00;;;65.97;;
51438;SDS011;38816;51.142;-0.974;2023-07-31T03:38:58;77.40;;;72.13;;
51438;SDS011;38816;51.142;-0.974;2023-07-31T03:41:23;74.40;;;69.43;;
51438;SDS011;38816;51.142;-0.974;2023-07-31T03:43:49;72.80;;;67.93;;
51438;SDS011;38816;51.142;-0.974;2023-07-31T03:46:21;72.47;;;67.38;;
51438;SDS011;38816;51.142;-0.974;2023-07-31T03:48:47;75.07;;;70.07;;
51438;SDS011;38816;51.142;-0.974;2023-07-31T03:51:12;73.20;;;68.13;;
51438;SDS011;38816;51.142;-0.974;2023-07-31T03:53:38;85.03;;;79.18;;
51438;SDS011;38816;51.142;-0.974;2023-07-31T03:56:04;68.78;;;64.07;;
51438;SDS011;38816;51.142;-0.974;2023-07-31T03:58:29;82.70;;;76.95;;
51438;SDS011;38816;51.142;-0.974;2023-07-31T04:00:55;73.80;;;68.82;;
51438;SDS011;38816;51.142;-0.974;2023-07-31T04:03:20;78.97;;;73.32;;
51438;SDS011;38816;51.142;-0.974;2023-07-31T04:05:46;76.18;;;70.68;;
51438;SDS011;38816;51.142;-0.974;2023-07-31T04:08:11;82.10;;;76.30;;
51438;SDS011;38816;51.142;-0.974;2023-07-31T04:10:36;77.47;;;72.18;;
51438;SDS011;38816;51.142;-0.974;2023-07-31T04:13:04;79.00;;;73.55;;
51438;SDS011;38816;51.142;-0.974;2023-07-31T04:15:30;78.18;;;72.40;;
51438;SDS011;38816;51.142;-0.974;2023-07-31T04:17:55;77.30;;;71.78;;
51438;SDS011;38816;51.142;-0.974;2023-07-31T04:20:21;77.38;;;71.68;;
51438;SDS011;38816;51.142;-0.974;2023-07-31T04:22:46;76.40;;;70.95;;
51438;SDS011;38816;51.142;-0.974;2023-07-31T04:25:12;77.43;;;71.72;;
51438;SDS011;38816;51.142;-0.974;2023-07-31T04:27:37;69.50;;;64.47;;
51438;SDS011;38816;51.142;-0.974;2023-07-31T04:30:03;72.63;;;66.97;;
51438;SDS011;38816;51.142;-0.974;2023-07-31T04:32:29;79.82;;;73.57;;
51438;SDS011;38816;51.142;-0.974;2023-07-31T04:34:54;72.35;;;67.07;;
51438;SDS011;38816;51.142;-0.974;2023-07-31T04:37:20;78.90;;;73.30;;
51438;SDS011;38816;51.142;-0.974;2023-07-31T04:39:45;71.05;;;65.30;;
51438;SDS011;38816;51.142;-0.974;2023-07-31T04:42:11;83.72;;;77.55;;
51438;SDS011;38816;51.142;-0.974;2023-07-31T04:44:36;75.80;;;70.35;;
51438;SDS011;38816;51.142;-0.974;2023-07-31T04:47:02;81.05;;;75.32;;
51438;SDS011;38816;51.142;-0.974;2023-07-31T04:49:27;76.00;;;70.13;;
51438;SDS011;38816;51.142;-0.974;2023-07-31T04:51:53;78.55;;;73.30;;
51438;SDS011;38816;51.142;-0.974;2023-07-31T04:54:18;80.90;;;74.65;;
51438;SDS011;38816;51.142;-0.974;2023-07-31T04:56:44;83.70;;;77.28;;
51438;SDS011;38816;51.142;-0.974;2023-07-31T04:59:09;84.90;;;78.57;;
51438;SDS011;38816;51.142;-0.974;2023-07-31T05:01:34;84.20;;;77.53;;
51438;SDS011;38816;51.142;-0.974;2023-07-31T05:04:00;75.25;;;69.50;;
51438;SDS011;38816;51.142;-0.974;2023-07-31T05:06:25;73.97;;;68.50;;
51438;SDS011;38816;51.142;-0.974;2023-07-31T05:08:51;73.82;;;68.38;;
51438;SDS011;38816;51.142;-0.974;2023-07-31T05:11:16;81.40;;;75.40;;
51438;SDS011;38816;51.142;-0.974;2023-07-31T05:13:42;76.18;;;70.88;;
51438;SDS011;38816;51.142;-0.974;2023-07-31T05:16:07;87.07;;;80.85;;
51438;SDS011;38816;51.142;-0.974;2023-07-31T05:18:33;84.22;;;77.65;;
51438;SDS011;38816;51.142;-0.974;2023-07-31T05:20:58;84.28;;;77.47;;
51438;SDS011;38816;51.142;-0.974;2023-07-31T05:23:24;82.13;;;76.18;;
51438;SDS011;38816;51.142;-0.974;2023-07-31T05:25:49;70.72;;;65.57;;
51438;SDS011;38816;51.142;-0.974;2023-07-31T05:28:14;90.18;;;83.88;;
51438;SDS011;38816;51.142;-0.974;2023-07-31T05:30:40;84.25;;;77.95;;
51438;SDS011;38816;51.142;-0.974;2023-07-31T05:33:05;76.03;;;70.53;;
51438;SDS011;38816;51.142;-0.974;2023-07-31T05:35:31;80.40;;;74.40;;
51438;SDS011;38816;51.142;-0.974;2023-07-31T05:37:57;85.45;;;79.43;;
51438;SDS011;38816;51.142;-0.974;2023-07-31T05:40:22;87.38;;;80.55;;
51438;SDS011;38816;51.142;-0.974;2023-07-31T05:42:47;82.93;;;77.15;;
51438;SDS011;38816;51.142;-0.974;2023-07-31T05:45:13;82.20;;;76.38;;
51438;SDS011;38816;51.142;-0.974;2023-07-31T05:47:39;75.38;;;69.28;;
51438;SDS011;38816;51.142;-0.974;2023-07-31T05:50:04;92.45;;;86.25;;
51438;SDS011;38816;51.142;-0.974;2023-07-31T05:52:30;72.07;;;66.97;;
51438;SDS011;38816;51.142;-0.974;2023-07-31T05:54:56;90.60;;;84.57;;
51438;SDS011;38816;51.142;-0.974;2023-07-31T05:57:21;85.50;;;79.65;;
51438;SDS011;38816;51.142;-0.974;2023-07-31T05:59:46;89.05;;;82.50;;
51438;SDS011;38816;51.142;-0.974;2023-07-31T06:02:12;84.57;;;78.82;;
51438;SDS011;38816;51.142;-0.974;2023-07-31T06:04:38;86.20;;;80.13;;
51438;SDS011;38816;51.142;-0.974;2023-07-31T06:07:03;84.80;;;78.32;;
51438;SDS011;38816;51.142;-0.974;2023-07-31T06:09:29;92.05;;;85.32;;
51438;SDS011;38816;51.142;-0.974;2023-07-31T06:11:54;92.45;;;86.32;;
51438;SDS011;38816;51.142;-0.974;2023-07-31T06:14:20;96.82;;;89.78;;
51438;SDS011;38816;51.142;-0.974;2023-07-31T06:16:46;97.03;;;89.63;;
51438;SDS011;38816;51.142;-0.974;2023-07-31T06:19:11;99.35;;;92.45;;
51438;SDS011;38816;51.142;-0.974;2023-07-31T06:21:37;91.03;;;84.57;;
51438;SDS011;38816;51.142;-0.974;2023-07-31T06:24:04;91.35;;;84.63;;
51438;SDS011;38816;51.142;-0.974;2023-07-31T06:26:30;96.15;;;88.88;;
51438;SDS011;38816;51.142;-0.974;2023-07-31T06:28:56;94.57;;;87.90;;
51438;SDS011;38816;51.142;-0.974;2023-07-31T06:31:21;94.80;;;88.03;;
51438;SDS011;38816;51.142;-0.974;2023-07-31T06:33:51;96.05;;;89.53;;
51438;SDS011;38816;51.142;-0.974;2023-07-31T06:36:17;92.93;;;86.60;;
51438;SDS011;38816;51.142;-0.974;2023-07-31T06:38:43;102.00;;;95.25;;
51438;SDS011;38816;51.142;-0.974;2023-07-31T06:41:09;107.97;;;100.57;;
51438;SDS011;38816;51.142;-0.974;2023-07-31T06:43:35;85.68;;;79.88;;
51438;SDS011;38816;51.142;-0.974;2023-07-31T06:46:04;92.93;;;86.40;;
51438;SDS011;38816;51.142;-0.974;2023-07-31T06:48:31;101.13;;;94.45;;
51438;SDS011;38816;51.142;-0.974;2023-07-31T06:50:57;86.15;;;80.35;;
51438;SDS011;38816;51.142;-0.974;2023-07-31T06:53:22;102.78;;;95.72;;
51438;SDS011;38816;51.142;-0.974;2023-07-31T06:55:47;100.97;;;94.32;;
51438;SDS011;38816;51.142;-0.974;2023-07-31T06:58:13;105.03;;;97.80;;
51438;SDS011;38816;51.142;-0.974;2023-07-31T07:00:38;107.70;;;100.60;;
51438;SDS011;38816;51.142;-0.974;2023-07-31T07:03:04;115.25;;;107.05;;
51438;SDS011;38816;51.142;-0.974;2023-07-31T07:05:29;116.50;;;108.72;;
51438;SDS011;38816;51.142;-0.974;2023-07-31T07:07:55;105.38;;;98.22;;
51438;SDS011;38816;51.142;-0.974;2023-07-31T07:10:20;109.30;;;101.63;;
51438;SDS011;38816;51.142;-0.974;2023-07-31T07:12:46;114.82;;;107.28;;
51438;SDS011;38816;51.142;-0.974;2023-07-31T07:15:11;110.57;;;103.18;;
51438;SDS011;38816;51.142;-0.974;2023-07-31T07:17:37;115.55;;;108.00;;
51438;SDS011;38816;51.142;-0.974;2023-07-31T07:20:02;105.95;;;98.43;;
51438;SDS011;38816;51.142;-0.974;2023-07-31T07:22:28;103.80;;;96.75;;
51438;SDS011;38816;51.142;-0.974;2023-07-31T07:24:54;112.57;;;104.85;;
51438;SDS011;38816;51.142;-0.974;2023-07-31T07:27:20;117.38;;;109.30;;
51438;SDS011;38816;51.142;-0.974;2023-07-31T07:29:45;120.10;;;112.20;;
51438;SDS011;38816;51.142;-0.974;2023-07-31T07:32:11;115.70;;;108.05;;
51438;SDS011;38816;51.142;-0.974;2023-07-31T07:34:37;118.20;;;110.35;;
51438;SDS011;38816;51.142;-0.974;2023-07-31T07:37:03;131.70;;;122.90;;
51438;SDS011;38816;51.142;-0.974;2023-07-31T07:39:28;123.95;;;115.80;;
51438;SDS011;38816;51.142;-0.974;2023-07-31T07:41:54;127.78;;;119.45;;
51438;SDS011;38816;51.142;-0.974;2023-07-31T07:44:19;130.23;;;121.32;;
51438;SDS011;38816;51.142;-0.974;2023-07-31T07:46:45;127.32;;;118.97;;
51438;SDS011;38816;51.142;-0.974;2023-07-31T07:49:10;124.07;;;115.93;;
51438;SDS011;38816;51.142;-0.974;2023-07-31T07:51:35;135.05;;;126.10;;
51438;SDS011;38816;51.142;-0.974;2023-07-31T07:54:01;129.80;;;121.32;;
51438;SDS011;38816;51.142;-0.974;2023-07-31T07:56:27;135.30;;;126.35;;
51438;SDS011;38816;51.142;-0.974;2023-07-31T07:58:53;130.88;;;122.43;;
51438;SDS011;38816;51.142;-0.974;2023-07-31T08:01:19;148.40;;;138.70;;
51438;SDS011;38816;51.142;-0.974;2023-07-31T08:03:45;131.25;;;122.75;;
51438;SDS011;38816;51.142;-0.974;2023-07-31T08:06:11;146.68;;;136.95;;
51438;SDS011;38816;51.142;-0.974;2023-07-31T08:08:37;139.60;;;130.57;;
51438;SDS011;38816;51.142;-0.974;2023-07-31T08:11:03;127.18;;;118.82;;
51438;SDS011;38816;51.142;-0.974;2023-07-31T08:13:28;149.10;;;139.32;;
51438;SDS011;38816;51.142;-0.974;2023-07-31T08:15:54;145.77;;;136.38;;
51438;SDS011;38816;51.142;-0.974;2023-07-31T08:18:19;145.70;;;136.07;;
51438;SDS011;38816;51.142;-0.974;2023-07-31T08:20:45;134.52;;;125.78;;
51438;SDS011;38816;51.142;-0.974;2023-07-31T08:23:11;144.90;;;135.35;;
51438;SDS011;38816;51.142;-0.974;2023-07-31T08:25:37;163.32;;;152.70;;
51438;SDS011;38816;51.142;-0.974;2023-07-31T08:28:02;159.68;;;149.25;;
51438;SDS011;38816;51.142;-0.974;2023-07-31T08:30:29;152.95;;;142.98;;
51438;SDS011;38816;51.142;-0.974;2023-07-31T08:32:55;165.75;;;154.90;;
51438;SDS011;38816;51.142;-0.974;2023-07-31T08:35:20;177.43;;;165.93;;
51438;SDS011;38816;51.142;-0.974;2023-07-31T08:37:46;180.45;;;168.65;;
51438;SDS011;38816;51.142;-0.974;2023-07-31T08:40:11;185.20;;;173.20;;
51438;SDS011;38816;51.142;-0.974;2023-07-31T08:42:44;190.88;;;178.43;;
51438;SDS011;38816;51.142;-0.974;2023-07-31T08:45:14;190.18;;;177.93;;
51438;SDS011;38816;51.142;-0.974;2023-07-31T08:47:44;193.70;;;181.13;;
51438;SDS011;38816;51.142;-0.974;2023-07-31T08:50:11;210.75;;;196.90;;
51438;SDS011;38816;51.142;-0.974;2023-07-31T08:52:38;183.35;;;171.45;;
51438;SDS011;38816;51.142;-0.974;2023-07-31T08:55:04;212.70;;;199.13;;
51438;SDS011;38816;51.142;-0.974;2023-07-31T08:57:30;220.93;;;206.65;;
51438;SDS011;38816;51.142;-0.974;2023-07-31T08:59:59;253.60;;;237.32;;
51438;SDS011;38816;51.142;-0.974;2023-07-31T09:02:25;276.95;;;259.23;;
51438;SDS011;38816;51.142;-0.974;2023-07-31T09:04:59;277.15;;;259.25;;
51438;SDS011;38816;51.142;-0.974;2023-07-31T09:07:26;270.90;;;253.48;;
51438;SDS011;38816;51.142;-0.974;2023-07-31T09:09:52;277.40;;;259.58;;
51438;SDS011;38816;51.142;-0.974;2023-07-31T09:12:17;295.50;;;276.38;;
51438;SDS011;38816;51.142;-0.974;2023-07-31T09:14:44;285.10;;;266.48;;
51438;SDS011;38816;51.142;-0.974;2023-07-31T09:17:10;282.30;;;264.08;;
51438;SDS011;38816;51.142;-0.974;2023-07-31T09:19:36;284.95;;;266.45;;
51438;SDS011;38816;51.142;-0.974;2023-07-31T09:22:05;273.23;;;255.48;;
51438;SDS011;38816;51.142;-0.974;2023-07-31T09:24:32;279.10;;;261.10;;
51438;SDS011;38816;51.142;-0.974;2023-07-31T09:26:59;263.67;;;246.68;;
51438;SDS011;38816;51.142;-0.974;2023-07-31T09:29:26;262.38;;;245.43;;
51438;SDS011;38816;51.142;-0.974;2023-07-31T09:31:53;283.45;;;265.20;;
51438;SDS011;38816;51.142;-0.974;2023-07-31T09:34:20;286.67;;;267.63;;
51438;SDS011;38816;51.142;-0.974;2023-07-31T09:36:53;284.73;;;266.35;;
51438;SDS011;38816;51.142;-0.974;2023-07-31T09:39:18;301.08;;;281.45;;
51438;SDS011;38816;51.142;-0.974;2023-07-31T09:41:47;312.45;;;291.88;;
51438;SDS011;38816;51.142;-0.974;2023-07-31T09:44:19;333.08;;;310.92;;
51438;SDS011;38816;51.142;-0.974;2023-07-31T09:46:45;330.45;;;308.80;;
51438;SDS011;38816;51.142;-0.974;2023-07-31T09:49:11;347.55;;;324.65;;
51438;SDS011;38816;51.142;-0.974;2023-07-31T09:51:38;365.63;;;341.42;;
51438;SDS011;38816;51.142;-0.974;2023-07-31T09:56:44;330.37;;;308.70;;
51438;SDS011;38816;51.142;-0.974;2023-07-31T09:59:14;329.17;;;307.73;;
51438;SDS011;38816;51.142;-0.974;2023-07-31T10:01:42;319.33;;;298.33;;
51438;SDS011;38816;51.142;-0.974;2023-07-31T10:04:11;304.67;;;284.95;;
51438;SDS011;38816;51.142;-0.974;2023-07-31T10:06:37;288.73;;;270.02;;
51438;SDS011;38816;51.142;-0.974;2023-07-31T10:09:07;290.25;;;271.50;;
51438;SDS011;38816;51.142;-0.974;2023-07-31T10:11:36;295.45;;;276.35;;
51438;SDS011;38816;51.142;-0.974;2023-07-31T10:14:06;275.15;;;257.58;;
51438;SDS011;38816;51.142;-0.974;2023-07-31T10:16:33;281.27;;;262.98;;
51438;SDS011;38816;51.142;-0.974;2023-07-31T10:19:00;289.23;;;270.33;;
51438;SDS011;38816;51.142;-0.974;2023-07-31T10:21:26;256.95;;;239.80;;
51438;SDS011;38816;51.142;-0.974;2023-07-31T10:23:52;277.05;;;259.15;;
51438;SDS011;38816;51.142;-0.974;2023-07-31T10:26:19;277.50;;;259.40;;
51438;SDS011;38816;51.142;-0.974;2023-07-31T10:28:48;290.15;;;271.08;;
51438;SDS011;38816;51.142;-0.974;2023-07-31T10:31:16;285.67;;;267.08;;
51438;SDS011;38816;51.142;-0.974;2023-07-31T10:33:42;251.90;;;235.70;;
51438;SDS011;38816;51.142;-0.974;2023-07-31T10:36:17;274.00;;;256.05;;
51438;SDS011;38816;51.142;-0.974;2023-07-31T10:38:43;232.82;;;217.70;;
51438;SDS011;38816;51.142;-0.974;2023-07-31T10:41:09;265.15;;;247.95;;
51438;SDS011;38816;51.142;-0.974;2023-07-31T10:43:36;276.33;;;258.40;;
51438;SDS011;38816;51.142;-0.974;2023-07-31T10:46:09;278.60;;;260.67;;
51438;SDS011;38816;51.142;-0.974;2023-07-31T10:48:37;271.35;;;253.88;;
51438;SDS011;38816;51.142;-0.974;2023-07-31T10:51:09;277.55;;;259.42;;
51438;SDS011;38816;51.142;-0.974;2023-07-31T10:53:37;272.80;;;255.30;;
51438;SDS011;38816;51.142;-0.974;2023-07-31T10:56:03;276.42;;;258.67;;
51438;SDS011;38816;51.142;-0.974;2023-07-31T10:58:31;258.17;;;241.55;;
51438;SDS011;38816;51.142;-0.974;2023-07-31T11:01:01;278.30;;;260.38;;
51438;SDS011;38816;51.142;-0.974;2023-07-31T11:03:49;257.58;;;240.80;;
51438;SDS011;38816;51.142;-0.974;2023-07-31T11:06:17;252.95;;;236.38;;
51438;SDS011;38816;51.142;-0.974;2023-07-31T11:08:52;266.83;;;249.60;;
51438;SDS011;38816;51.142;-0.974;2023-07-31T11:11:18;275.98;;;257.90;;
51438;SDS011;38816;51.142;-0.974;2023-07-31T11:13:46;270.92;;;253.40;;
51438;SDS011;38816;51.142;-0.974;2023-07-31T11:16:15;268.23;;;250.88;;
51438;SDS011;38816;51.142;-0.974;2023-07-31T11:18:45;278.52;;;260.63;;
51438;SDS011;38816;51.142;-0.974;2023-07-31T11:21:19;265.95;;;248.82;;
51438;SDS011;38816;51.142;-0.974;2023-07-31T11:23:50;256.33;;;239.80;;
51438;SDS011;38816;51.142;-0.974;2023-07-31T11:26:17;244.10;;;228.27;;
51438;SDS011;38816;51.142;-0.974;2023-07-31T11:28:46;249.88;;;233.75;;
51438;SDS011;38816;51.142;-0.974;2023-07-31T11:31:12;245.68;;;229.90;;
51438;SDS011;38816;51.142;-0.974;2023-07-31T11:33:37;239.20;;;223.85;;
51438;SDS011;38816;51.142;-0.974;2023-07-31T11:36:03;245.43;;;229.70;;
51438;SDS011;38816;51.142;-0.974;2023-07-31T11:38:33;258.65;;;242.02;;
51438;SDS011;38816;51.142;-0.974;2023-07-31T11:40:59;242.68;;;226.75;;
51438;SDS011;38816;51.142;-0.974;2023-07-31T11:43:27;220.27;;;206.10;;
51438;SDS011;38816;51.142;-0.974;2023-07-31T11:45:56;251.68;;;235.57;;
51438;SDS011;38816;51.142;-0.974;2023-07-31T11:48:31;245.60;;;229.85;;
51438;SDS011;38816;51.142;-0.974;2023-07-31T11:53:32;226.48;;;211.65;;
51438;SDS011;38816;51.142;-0.974;2023-07-31T11:56:01;251.15;;;234.75;;
51438;SDS011;38816;51.142;-0.974;2023-07-31T11:58:32;247.82;;;231.98;;
51438;SDS011;38816;51.142;-0.974;2023-07-31T12:00:59;236.40;;;221.20;;
51438;SDS011;38816;51.142;-0.974;2023-07-31T12:03:25;228.68;;;213.85;;
51438;SDS011;38816;51.142;-0.974;2023-07-31T12:05:52;232.55;;;217.32;;
51438;SDS011;38816;51.142;-0.974;2023-07-31T12:08:20;262.25;;;244.98;;
51438;SDS011;38816;51.142;-0.974;2023-07-31T12:10:46;245.82;;;229.82;;
51438;SDS011;38816;51.142;-0.974;2023-07-31T12:13:19;220.02;;;205.68;;
51438;SDS011;38816;51.142;-0.974;2023-07-31T12:15:47;226.57;;;211.23;;
51438;SDS011;38816;51.142;-0.974;2023-07-31T12:18:14;236.88;;;221.02;;
51438;SDS011;38816;51.142;-0.974;2023-07-31T12:21:14;241.57;;;225.95;;
51438;SDS011;38816;51.142;-0.974;2023-07-31T12:23:34;229.88;;;214.93;;
51438;SDS011;38816;51.142;-0.974;2023-07-31T12:26:04;241.90;;;226.27;;
51438;SDS011;38816;51.142;-0.974;2023-07-31T12:28:34;235.13;;;219.95;;
51438;SDS011;38816;51.142;-0.974;2023-07-31T12:31:10;216.65;;;201.93;;
51438;SDS011;38816;51.142;-0.974;2023-07-31T12:33:40;243.88;;;227.95;;
51438;SDS011;38816;51.142;-0.974;2023-07-31T12:36:16;212.98;;;198.43;;
51438;SDS011;38816;51.142;-0.974;2023-07-31T12:38:51;219.98;;;205.30;;
51438;SDS011;38816;51.142;-0.974;2023-07-31T12:41:17;225.63;;;210.68;;
51438;SDS011;38816;51.142;-0.974;2023-07-31T12:43:44;225.05;;;210.18;;
51438;SDS011;38816;51.142;-0.974;2023-07-31T12:46:10;227.45;;;212.38;;
51438;SDS011;38816;51.142;-0.974;2023-07-31T12:48:36;204.52;;;190.80;;
51438;SDS011;38816;51.142;-0.974;2023-07-31T12:51:02;252.15;;;235.40;;
51438;SDS011;38816;51.142;-0.974;2023-07-31T12:53:28;247.00;;;230.65;;
51438;SDS011;38816;51.142;-0.974;2023-07-31T12:55:55;245.77;;;229.48;;
51438;SDS011;38816;51.142;-0.974;2023-07-31T12:58:21;235.50;;;219.85;;
51438;SDS011;38816;51.142;-0.974;2023-07-31T13:00:46;225.57;;;210.60;;
51438;SDS011;38816;51.142;-0.974;2023-07-31T13:03:12;237.52;;;221.52;;
51438;SDS011;38816;51.142;-0.974;2023-07-31T13:05:37;237.15;;;221.38;;
51438;SDS011;38816;51.142;-0.974;2023-07-31T13:08:03;217.15;;;202.45;;
51438;SDS011;38816;51.142;-0.974;2023-07-31T13:10:29;219.82;;;205.35;;
51438;SDS011;38816;51.142;-0.974;2023-07-31T13:12:55;226.40;;;211.25;;
51438;SDS011;38816;51.142;-0.974;2023-07-31T13:15:21;223.23;;;208.48;;
51438;SDS011;38816;51.142;-0.974;2023-07-31T13:17:46;221.45;;;206.60;;
51438;SDS011;38816;51.142;-0.974;2023-07-31T13:20:12;210.38;;;196.38;;
51438;SDS011;38816;51.142;-0.974;2023-07-31T13:22:38;214.60;;;200.32;;
51438;SDS011;38816;51.142;-0.974;2023-07-31T13:25:03;211.52;;;196.75;;
51438;SDS011;38816;51.142;-0.974;2023-07-31T13:27:30;206.13;;;192.30;;
51438;SDS011;38816;51.142;-0.974;2023-07-31T13:29:55;206.57;;;192.77;;
51438;SDS011;38816;51.142;-0.974;2023-07-31T13:32:21;194.57;;;180.82;;
51438;SDS011;38816;51.142;-0.974;2023-07-31T13:34:46;209.05;;;195.02;;
51438;SDS011;38816;51.142;-0.974;2023-07-31T13:37:13;202.20;;;188.63;;
51438;SDS011;38816;51.142;-0.974;2023-07-31T13:39:39;216.68;;;201.93;;
51438;SDS011;38816;51.142;-0.974;2023-07-31T13:42:06;206.68;;;191.88;;
51438;SDS011;38816;51.142;-0.974;2023-07-31T13:44:36;182.27;;;169.73;;
51438;SDS011;38816;51.142;-0.974;2023-07-31T13:47:02;195.73;;;182.63;;
51438;SDS011;38816;51.142;-0.974;2023-07-31T13:49:28;188.00;;;175.35;;
51438;SDS011;38816;51.142;-0.974;2023-07-31T13:51:55;177.23;;;164.95;;
51438;SDS011;38816;51.142;-0.974;2023-07-31T13:54:21;158.82;;;147.98;;
51438;SDS011;38816;51.142;-0.974;2023-07-31T13:56:47;173.15;;;160.82;;
51438;SDS011;38816;51.142;-0.974;2023-07-31T13:59:13;171.00;;;159.25;;
51438;SDS011;38816;51.142;-0.974;2023-07-31T14:01:40;178.80;;;166.85;;
51438;SDS011;38816;51.142;-0.974;2023-07-31T14:04:05;165.52;;;153.80;;
51438;SDS011;38816;51.142;-0.974;2023-07-31T14:06:31;168.45;;;156.60;;
51438;SDS011;38816;51.142;-0.974;2023-07-31T14:08:56;163.82;;;151.98;;